Terminal Aerodrome Forecast
Issued by NWS

Home | Current Version | Previous Version | Text Only | Print | Product List | Glossary On
Versions: 1 2 3 4 5 6 7 8 9 10 11 12 13 14 15
000
FTUS43 KDTX 282321
TAFDET
TAF
KDET 282321Z 2900/2924 14008KT P6SM BKN250
     FM290200 00000KT P6SM BKN250
     FM291200 18005KT P6SM SCT060 BKN150
     FM291500 22008KT P6SM BKN045 BKN120 PROB30 2920/2923 3SM TSRA
      BKN035CB OVC060=

USA.gov is the U.S. government's official web portal to all federal, state and local government web resources and services.